sensor_id;sensor_type;location;lat;lon;timestamp;pressure;altitude;pressure_sealevel;temperature;humidity
69060;BME280;56135;37.534;-122.308;2022-07-29T00:00:38;101080.34;;;21.71;52.95
69060;BME280;56135;37.534;-122.308;2022-07-29T00:03:04;101080.13;;;21.75;52.68
69060;BME280;56135;37.534;-122.308;2022-07-29T00:05:30;101077.91;;;21.66;53.15
69060;BME280;56135;37.534;-122.308;2022-07-29T00:07:56;101075.56;;;21.60;53.53
69060;BME280;56135;37.534;-122.308;2022-07-29T00:10:21;101079.38;;;21.56;53.63
69060;BME280;56135;37.534;-122.308;2022-07-29T00:12:47;101083.09;;;21.36;53.93
69060;BME280;56135;37.534;-122.308;2022-07-29T00:15:13;101081.66;;;21.28;54.66
69060;BME280;56135;37.534;-122.308;2022-07-29T00:17:39;101092.75;;;21.22;54.38
69060;BME280;56135;37.534;-122.308;2022-07-29T00:20:05;101078.69;;;21.17;54.92
69060;BME280;56135;37.534;-122.308;2022-07-29T00:22:31;101084.69;;;21.22;55.16
69060;BME280;56135;37.534;-122.308;2022-07-29T00:24:57;101078.50;;;21.20;55.16
69060;BME280;56135;37.534;-122.308;2022-07-29T00:27:23;101081.19;;;21.03;55.49
69060;BME280;56135;37.534;-122.308;2022-07-29T00:29:48;101084.91;;;21.00;55.82
69060;BME280;56135;37.534;-122.308;2022-07-29T00:32:14;101093.06;;;20.98;56.12
69060;BME280;56135;37.534;-122.308;2022-07-29T00:34:40;101085.94;;;20.97;56.34
69060;BME280;56135;37.534;-122.308;2022-07-29T00:37:24;101081.44;;;20.61;57.28
69060;BME280;56135;37.534;-122.308;2022-07-29T00:39:50;101084.78;;;20.47;57.84
69060;BME280;56135;37.534;-122.308;2022-07-29T00:42:16;101092.59;;;20.35;58.08
69060;BME280;56135;37.534;-122.308;2022-07-29T00:44:42;101094.25;;;20.18;58.47
69060;BME280;56135;37.534;-122.308;2022-07-29T00:47:11;101092.81;;;20.11;59.11
69060;BME280;56135;37.534;-122.308;2022-07-29T00:49:38;101093.09;;;20.24;58.52
69060;BME280;56135;37.534;-122.308;2022-07-29T00:52:04;101092.50;;;20.17;59.09
69060;BME280;56135;37.534;-122.308;2022-07-29T00:54:30;101092.69;;;19.95;59.36
69060;BME280;56135;37.534;-122.308;2022-07-29T00:56:57;101090.28;;;19.89;59.64
69060;BME280;56135;37.534;-122.308;2022-07-29T00:59:24;101092.88;;;19.90;59.64
69060;BME280;56135;37.534;-122.308;2022-07-29T01:01:50;101096.28;;;19.73;60.21
69060;BME280;56135;37.534;-122.308;2022-07-29T01:04:16;101101.41;;;19.59;60.90
69060;BME280;56135;37.534;-122.308;2022-07-29T01:06:42;101104.88;;;19.42;61.47
69060;BME280;56135;37.534;-122.308;2022-07-29T01:09:08;101097.41;;;19.28;62.24
69060;BME280;56135;37.534;-122.308;2022-07-29T01:11:34;101105.25;;;19.12;62.94
69060;BME280;56135;37.534;-122.308;2022-07-29T01:14:01;101099.88;;;18.91;63.33
69060;BME280;56135;37.534;-122.308;2022-07-29T01:16:30;101110.28;;;18.75;63.86
69060;BME280;56135;37.534;-122.308;2022-07-29T01:19:00;101120.13;;;18.53;64.67
69060;BME280;56135;37.534;-122.308;2022-07-29T01:26:40;101114.69;;;18.10;65.95
69060;BME280;56135;37.534;-122.308;2022-07-29T01:29:10;101111.59;;;17.97;66.75
69060;BME280;56135;37.534;-122.308;2022-07-29T01:34:15;101115.09;;;17.74;67.48
69060;BME280;56135;37.534;-122.308;2022-07-29T01:36:43;101126.47;;;17.55;68.37
69060;BME280;56135;37.534;-122.308;2022-07-29T01:39:12;101123.19;;;17.47;68.92
69060;BME280;56135;37.534;-122.308;2022-07-29T01:41:46;101123.72;;;17.31;69.61
69060;BME280;56135;37.534;-122.308;2022-07-29T01:44:20;101121.44;;;17.21;69.83
69060;BME280;56135;37.534;-122.308;2022-07-29T01:46:54;101122.22;;;17.24;70.16
69060;BME280;56135;37.534;-122.308;2022-07-29T01:49:22;101126.13;;;17.14;70.17
69060;BME280;56135;37.534;-122.308;2022-07-29T01:51:54;101121.56;;;16.89;71.35
69060;BME280;56135;37.534;-122.308;2022-07-29T01:56:51;101120.13;;;16.79;71.75
69060;BME280;56135;37.534;-122.308;2022-07-29T01:59:18;101129.31;;;16.70;72.26
69060;BME280;56135;37.534;-122.308;2022-07-29T02:01:46;101132.31;;;16.59;72.44
69060;BME280;56135;37.534;-122.308;2022-07-29T02:04:12;101127.22;;;16.51;72.71
69060;BME280;56135;37.534;-122.308;2022-07-29T02:06:40;101120.31;;;16.46;72.87
69060;BME280;56135;37.534;-122.308;2022-07-29T02:09:07;101126.72;;;16.39;73.72
69060;BME280;56135;37.534;-122.308;2022-07-29T02:11:34;101128.66;;;16.33;74.17
69060;BME280;56135;37.534;-122.308;2022-07-29T02:14:01;101128.13;;;16.22;74.43
69060;BME280;56135;37.534;-122.308;2022-07-29T02:16:29;101128.34;;;16.14;75.40
69060;BME280;56135;37.534;-122.308;2022-07-29T02:18:56;101129.31;;;16.12;75.25
69060;BME280;56135;37.534;-122.308;2022-07-29T02:21:24;101126.75;;;16.09;74.93
69060;BME280;56135;37.534;-122.308;2022-07-29T02:23:51;101125.19;;;16.01;75.59
69060;BME280;56135;37.534;-122.308;2022-07-29T02:26:21;101127.25;;;15.92;75.84
69060;BME280;56135;37.534;-122.308;2022-07-29T02:28:49;101137.91;;;15.92;75.82
69060;BME280;56135;37.534;-122.308;2022-07-29T02:31:15;101130.13;;;15.84;76.38
69060;BME280;56135;37.534;-122.308;2022-07-29T02:33:42;101137.28;;;15.82;76.10
69060;BME280;56135;37.534;-122.308;2022-07-29T02:36:08;101134.72;;;15.77;76.15
69060;BME280;56135;37.534;-122.308;2022-07-29T02:38:34;101141.00;;;15.75;76.76
69060;BME280;56135;37.534;-122.308;2022-07-29T02:41:40;101152.72;;;15.69;76.69
69060;BME280;56135;37.534;-122.308;2022-07-29T02:44:05;101148.41;;;15.63;76.90
69060;BME280;56135;37.534;-122.308;2022-07-29T02:46:32;101147.66;;;15.58;77.09
69060;BME280;56135;37.534;-122.308;2022-07-29T02:51:31;101145.25;;;15.49;77.85
69060;BME280;56135;37.534;-122.308;2022-07-29T02:53:58;101158.69;;;15.44;78.04
69060;BME280;56135;37.534;-122.308;2022-07-29T02:56:27;101151.81;;;15.37;78.00
69060;BME280;56135;37.534;-122.308;2022-07-29T02:58:54;101151.94;;;15.31;78.35
69060;BME280;56135;37.534;-122.308;2022-07-29T03:01:22;101155.59;;;15.27;78.52
69060;BME280;56135;37.534;-122.308;2022-07-29T03:03:48;101160.22;;;15.20;79.25
69060;BME280;56135;37.534;-122.308;2022-07-29T03:06:15;101169.16;;;15.17;79.12
69060;BME280;56135;37.534;-122.308;2022-07-29T03:08:42;101171.00;;;15.14;78.95
69060;BME280;56135;37.534;-122.308;2022-07-29T03:11:09;101175.59;;;15.07;79.89
69060;BME280;56135;37.534;-122.308;2022-07-29T03:13:35;101179.25;;;15.03;79.30
69060;BME280;56135;37.534;-122.308;2022-07-29T03:16:01;101180.22;;;15.00;79.65
69060;BME280;56135;37.534;-122.308;2022-07-29T03:18:28;101178.59;;;14.93;80.48
69060;BME280;56135;37.534;-122.308;2022-07-29T03:20:54;101176.13;;;14.86;81.27
69060;BME280;56135;37.534;-122.308;2022-07-29T03:23:20;101177.09;;;14.83;81.12
69060;BME280;56135;37.534;-122.308;2022-07-29T03:25:52;101175.41;;;14.79;81.57
69060;BME280;56135;37.534;-122.308;2022-07-29T03:28:18;101179.09;;;14.72;81.81
69060;BME280;56135;37.534;-122.308;2022-07-29T03:30:45;101170.31;;;14.70;81.72
69060;BME280;56135;37.534;-122.308;2022-07-29T03:33:10;101171.25;;;14.67;82.48
69060;BME280;56135;37.534;-122.308;2022-07-29T03:35:36;101165.13;;;14.63;82.57
69060;BME280;56135;37.534;-122.308;2022-07-29T03:38:02;101169.63;;;14.58;82.70
69060;BME280;56135;37.534;-122.308;2022-07-29T03:40:32;101163.47;;;14.56;82.72
69060;BME280;56135;37.534;-122.308;2022-07-29T03:42:59;101160.06;;;14.51;82.88
69060;BME280;56135;37.534;-122.308;2022-07-29T03:45:28;101167.25;;;14.46;83.07
69060;BME280;56135;37.534;-122.308;2022-07-29T03:47:57;101162.88;;;14.43;83.56
69060;BME280;56135;37.534;-122.308;2022-07-29T03:50:24;101164.72;;;14.40;83.31
69060;BME280;56135;37.534;-122.308;2022-07-29T03:52:51;101157.69;;;14.37;83.37
69060;BME280;56135;37.534;-122.308;2022-07-29T03:55:17;101165.69;;;14.35;83.81
69060;BME280;56135;37.534;-122.308;2022-07-29T03:57:42;101166.69;;;14.31;83.89
69060;BME280;56135;37.534;-122.308;2022-07-29T04:00:09;101178.22;;;14.30;83.92
69060;BME280;56135;37.534;-122.308;2022-07-29T04:02:36;101177.44;;;14.25;84.23
69060;BME280;56135;37.534;-122.308;2022-07-29T04:05:03;101170.41;;;14.23;84.49
69060;BME280;56135;37.534;-122.308;2022-07-29T04:07:29;101171.28;;;14.22;84.11
69060;BME280;56135;37.534;-122.308;2022-07-29T04:09:55;101174.03;;;14.18;84.43
69060;BME280;56135;37.534;-122.308;2022-07-29T04:12:21;101179.41;;;14.15;84.65
69060;BME280;56135;37.534;-122.308;2022-07-29T04:14:46;101182.13;;;14.14;85.19
69060;BME280;56135;37.534;-122.308;2022-07-29T04:17:12;101175.06;;;14.11;85.39
69060;BME280;56135;37.534;-122.308;2022-07-29T04:19:38;101182.16;;;14.11;85.28
69060;BME280;56135;37.534;-122.308;2022-07-29T04:22:04;101185.75;;;14.08;84.93
69060;BME280;56135;37.534;-122.308;2022-07-29T04:24:29;101183.13;;;14.07;85.11
69060;BME280;56135;37.534;-122.308;2022-07-29T04:26:55;101188.47;;;14.05;85.28
69060;BME280;56135;37.534;-122.308;2022-07-29T04:29:21;101183.19;;;14.04;85.74
69060;BME280;56135;37.534;-122.308;2022-07-29T04:31:47;101192.97;;;14.01;85.79
69060;BME280;56135;37.534;-122.308;2022-07-29T04:34:13;101196.56;;;14.00;85.95
69060;BME280;56135;37.534;-122.308;2022-07-29T04:36:38;101200.16;;;13.96;86.15
69060;BME280;56135;37.534;-122.308;2022-07-29T04:39:04;101206.34;;;13.97;86.42
69060;BME280;56135;37.534;-122.308;2022-07-29T04:41:30;101200.22;;;13.93;86.03
69060;BME280;56135;37.534;-122.308;2022-07-29T04:43:56;101209.16;;;13.89;86.25
69060;BME280;56135;37.534;-122.308;2022-07-29T04:46:22;101199.44;;;13.88;86.39
69060;BME280;56135;37.534;-122.308;2022-07-29T04:48:48;101194.19;;;13.85;86.20
69060;BME280;56135;37.534;-122.308;2022-07-29T04:51:15;101197.78;;;13.82;86.56
69060;BME280;56135;37.534;-122.308;2022-07-29T04:53:41;101205.78;;;13.81;86.68
69060;BME280;56135;37.534;-122.308;2022-07-29T04:56:07;101208.47;;;13.78;87.12
69060;BME280;56135;37.534;-122.308;2022-07-29T04:58:35;101215.56;;;13.77;86.87
69060;BME280;56135;37.534;-122.308;2022-07-29T05:01:01;101217.38;;;13.77;86.72
69060;BME280;56135;37.534;-122.308;2022-07-29T05:03:27;101216.44;;;13.78;87.02
69060;BME280;56135;37.534;-122.308;2022-07-29T05:06:13;101213.81;;;13.76;87.19
69060;BME280;56135;37.534;-122.308;2022-07-29T05:08:39;101216.50;;;13.75;87.00
69060;BME280;56135;37.534;-122.308;2022-07-29T05:11:05;101218.31;;;13.73;86.84
69060;BME280;56135;37.534;-122.308;2022-07-29T05:13:30;101218.31;;;13.71;86.97
69060;BME280;56135;37.534;-122.308;2022-07-29T05:15:56;101216.56;;;13.72;87.09
69060;BME280;56135;37.534;-122.308;2022-07-29T05:18:24;101235.19;;;13.70;87.60
69060;BME280;56135;37.534;-122.308;2022-07-29T05:20:49;101234.28;;;13.70;88.05
69060;BME280;56135;37.534;-122.308;2022-07-29T05:23:15;101236.06;;;13.71;87.99
69060;BME280;56135;37.534;-122.308;2022-07-29T05:25:41;101226.31;;;13.70;88.18
69060;BME280;56135;37.534;-122.308;2022-07-29T05:28:07;101230.78;;;13.69;88.39
69060;BME280;56135;37.534;-122.308;2022-07-29T05:30:33;101229.91;;;13.67;87.76
69060;BME280;56135;37.534;-122.308;2022-07-29T05:32:58;101237.91;;;13.65;88.33
69060;BME280;56135;37.534;-122.308;2022-07-29T05:35:24;101233.50;;;13.64;87.88
69060;BME280;56135;37.534;-122.308;2022-07-29T05:37:50;101227.31;;;13.64;88.25
69060;BME280;56135;37.534;-122.308;2022-07-29T05:40:16;101223.78;;;13.65;88.03
69060;BME280;56135;37.534;-122.308;2022-07-29T05:42:41;101223.78;;;13.65;88.45
69060;BME280;56135;37.534;-122.308;2022-07-29T05:45:07;101223.75;;;13.66;88.53
69060;BME280;56135;37.534;-122.308;2022-07-29T05:47:33;101224.56;;;13.68;88.69
69060;BME280;56135;37.534;-122.308;2022-07-29T05:49:59;101223.66;;;13.70;88.29
69060;BME280;56135;37.534;-122.308;2022-07-29T05:52:25;101228.06;;;13.72;88.25
69060;BME280;56135;37.534;-122.308;2022-07-29T05:54:51;101220.06;;;13.74;88.01
69060;BME280;56135;37.534;-122.308;2022-07-29T05:57:17;101221.75;;;13.78;88.16
69060;BME280;56135;37.534;-122.308;2022-07-29T05:59:43;101220.81;;;13.80;87.87
69060;BME280;56135;37.534;-122.308;2022-07-29T06:02:09;101221.56;;;13.87;88.21
69060;BME280;56135;37.534;-122.308;2022-07-29T06:04:34;101218.81;;;13.93;87.73
69060;BME280;56135;37.534;-122.308;2022-07-29T06:07:00;101225.81;;;13.97;87.14
69060;BME280;56135;37.534;-122.308;2022-07-29T06:09:26;101220.44;;;14.02;87.21
69060;BME280;56135;37.534;-122.308;2022-07-29T06:11:52;101221.22;;;14.06;87.18
69060;BME280;56135;37.534;-122.308;2022-07-29T06:14:18;101221.09;;;14.12;87.04
69060;BME280;56135;37.534;-122.308;2022-07-29T06:16:44;101220.13;;;14.16;86.90
69060;BME280;56135;37.534;-122.308;2022-07-29T06:19:10;101214.78;;;14.19;86.87
69060;BME280;56135;37.534;-122.308;2022-07-29T06:21:36;101212.91;;;14.23;86.82
69060;BME280;56135;37.534;-122.308;2022-07-29T06:24:02;101215.50;;;14.27;86.77
69060;BME280;56135;37.534;-122.308;2022-07-29T06:26:27;101222.53;;;14.30;86.64
69060;BME280;56135;37.534;-122.308;2022-07-29T06:28:53;101217.97;;;14.37;86.89
69060;BME280;56135;37.534;-122.308;2022-07-29T06:31:19;101213.50;;;14.37;86.78
69060;BME280;56135;37.534;-122.308;2022-07-29T06:33:45;101216.97;;;14.41;86.81
69060;BME280;56135;37.534;-122.308;2022-07-29T06:36:10;101216.00;;;14.45;86.15
69060;BME280;56135;37.534;-122.308;2022-07-29T06:38:36;101213.28;;;14.48;85.88
69060;BME280;56135;37.534;-122.308;2022-07-29T06:41:03;101215.00;;;14.50;86.12
69060;BME280;56135;37.534;-122.308;2022-07-29T06:43:40;101208.78;;;14.51;86.07
69060;BME280;56135;37.534;-122.308;2022-07-29T06:46:11;101206.06;;;14.53;85.79
69060;BME280;56135;37.534;-122.308;2022-07-29T06:48:38;101206.97;;;14.52;85.84
69060;BME280;56135;37.534;-122.308;2022-07-29T06:51:04;101213.16;;;14.54;85.67
69060;BME280;56135;37.534;-122.308;2022-07-29T06:53:31;101219.38;;;14.53;86.09
69060;BME280;56135;37.534;-122.308;2022-07-29T06:55:57;101214.00;;;14.55;85.69
69060;BME280;56135;37.534;-122.308;2022-07-29T06:58:26;101216.63;;;14.56;85.94
69060;BME280;56135;37.534;-122.308;2022-07-29T07:00:52;101218.38;;;14.57;85.69
69060;BME280;56135;37.534;-122.308;2022-07-29T07:03:18;101213.03;;;14.59;85.64
69060;BME280;56135;37.534;-122.308;2022-07-29T07:05:44;101220.09;;;14.60;85.51
69060;BME280;56135;37.534;-122.308;2022-07-29T07:08:10;101220.06;;;14.63;85.57
69060;BME280;56135;37.534;-122.308;2022-07-29T07:10:36;101230.69;;;14.64;85.36
69060;BME280;56135;37.534;-122.308;2022-07-29T07:13:02;101223.56;;;14.65;85.84
69060;BME280;56135;37.534;-122.308;2022-07-29T07:15:28;101227.09;;;14.65;85.46
69060;BME280;56135;37.534;-122.308;2022-07-29T07:17:54;101227.09;;;14.67;85.36
69060;BME280;56135;37.534;-122.308;2022-07-29T07:20:20;101226.16;;;14.68;85.31
69060;BME280;56135;37.534;-122.308;2022-07-29T07:22:45;101233.19;;;14.71;84.66
69060;BME280;56135;37.534;-122.308;2022-07-29T07:25:11;101233.16;;;14.74;84.61
69060;BME280;56135;37.534;-122.308;2022-07-29T07:27:37;101231.34;;;14.74;84.60
69060;BME280;56135;37.534;-122.308;2022-07-29T07:30:03;101234.88;;;14.75;85.01
69060;BME280;56135;37.534;-122.308;2022-07-29T07:32:31;101233.97;;;14.76;85.02
69060;BME280;56135;37.534;-122.308;2022-07-29T07:34:57;101235.75;;;14.75;84.26
69060;BME280;56135;37.534;-122.308;2022-07-29T07:37:24;101238.34;;;14.78;84.04
69060;BME280;56135;37.534;-122.308;2022-07-29T07:39:50;101234.81;;;14.78;84.11
69060;BME280;56135;37.534;-122.308;2022-07-29T07:42:16;101230.41;;;14.77;83.94
69060;BME280;56135;37.534;-122.308;2022-07-29T07:44:42;101232.19;;;14.76;84.17
69060;BME280;56135;37.534;-122.308;2022-07-29T07:47:08;101227.75;;;14.77;84.39
69060;BME280;56135;37.534;-122.308;2022-07-29T07:49:34;101226.84;;;14.78;84.26
69060;BME280;56135;37.534;-122.308;2022-07-29T07:52:00;101225.94;;;14.79;83.86
69060;BME280;56135;37.534;-122.308;2022-07-29T07:54:25;101221.44;;;14.81;83.67
69060;BME280;56135;37.534;-122.308;2022-07-29T07:56:51;101215.31;;;14.77;83.67
69060;BME280;56135;37.534;-122.308;2022-07-29T07:59:17;101219.78;;;14.77;83.93
69060;BME280;56135;37.534;-122.308;2022-07-29T08:01:43;101213.50;;;14.79;83.48
69060;BME280;56135;37.534;-122.308;2022-07-29T08:04:08;101213.50;;;14.79;83.45
69060;BME280;56135;37.534;-122.308;2022-07-29T08:06:34;101219.69;;;14.80;83.52
69060;BME280;56135;37.534;-122.308;2022-07-29T08:09:03;101215.25;;;14.80;83.52
69060;BME280;56135;37.534;-122.308;2022-07-29T08:11:29;101213.41;;;14.82;83.25
69060;BME280;56135;37.534;-122.308;2022-07-29T08:13:54;101215.25;;;14.80;83.50
69060;BME280;56135;37.534;-122.308;2022-07-29T08:16:21;101213.47;;;14.81;83.33
69060;BME280;56135;37.534;-122.308;2022-07-29T08:18:46;101209.03;;;14.81;83.41
69060;BME280;56135;37.534;-122.308;2022-07-29T08:21:13;101205.53;;;14.79;83.37
69060;BME280;56135;37.534;-122.308;2022-07-29T08:23:39;101203.72;;;14.80;83.66
69060;BME280;56135;37.534;-122.308;2022-07-29T08:26:10;101197.47;;;14.82;83.87
69060;BME280;56135;37.534;-122.308;2022-07-29T08:28:39;101194.84;;;14.81;83.61
69060;BME280;56135;37.534;-122.308;2022-07-29T08:31:05;101198.34;;;14.83;83.50
69060;BME280;56135;37.534;-122.308;2022-07-29T08:33:32;101205.41;;;14.84;83.70
69060;BME280;56135;37.534;-122.308;2022-07-29T08:35:58;101196.47;;;14.88;83.36
69060;BME280;56135;37.534;-122.308;2022-07-29T08:38:23;101205.28;;;14.90;83.23
69060;BME280;56135;37.534;-122.308;2022-07-29T08:40:51;101201.72;;;14.91;83.42
69060;BME280;56135;37.534;-122.308;2022-07-29T08:43:17;101206.13;;;14.92;83.52
69060;BME280;56135;37.534;-122.308;2022-07-29T08:45:44;101205.22;;;14.92;83.70
69060;BME280;56135;37.534;-122.308;2022-07-29T08:48:14;101202.56;;;14.92;83.60
69060;BME280;56135;37.534;-122.308;2022-07-29T08:50:40;101205.19;;;14.93;83.66
69060;BME280;56135;37.534;-122.308;2022-07-29T08:53:07;101208.75;;;14.94;83.55
69060;BME280;56135;37.534;-122.308;2022-07-29T08:55:36;101206.91;;;14.96;83.26
69060;BME280;56135;37.534;-122.308;2022-07-29T08:58:04;101197.19;;;14.95;83.16
69060;BME280;56135;37.534;-122.308;2022-07-29T09:00:30;101201.63;;;14.94;83.21
69060;BME280;56135;37.534;-122.308;2022-07-29T09:02:56;101201.59;;;14.96;83.45
69060;BME280;56135;37.534;-122.308;2022-07-29T09:05:23;101198.03;;;14.97;83.47
69060;BME280;56135;37.534;-122.308;2022-07-29T09:07:50;101191.88;;;14.95;83.56
69060;BME280;56135;37.534;-122.308;2022-07-29T09:10:16;101189.22;;;14.93;83.55
69060;BME280;56135;37.534;-122.308;2022-07-29T09:12:42;101188.38;;;14.93;83.61
69060;BME280;56135;37.534;-122.308;2022-07-29T09:15:08;101179.44;;;14.95;83.29
69060;BME280;56135;37.534;-122.308;2022-07-29T09:20:13;101185.72;;;14.93;83.51
69060;BME280;56135;37.534;-122.308;2022-07-29T09:22:39;101173.25;;;14.93;83.51
69060;BME280;56135;37.534;-122.308;2022-07-29T09:25:05;101174.16;;;14.94;83.27
69060;BME280;56135;37.534;-122.308;2022-07-29T09:27:31;101178.59;;;14.93;83.64
69060;BME280;56135;37.534;-122.308;2022-07-29T09:29:59;101181.19;;;14.96;83.18
69060;BME280;56135;37.534;-122.308;2022-07-29T09:32:25;101186.47;;;14.98;83.28
69060;BME280;56135;37.534;-122.308;2022-07-29T09:35:13;101183.84;;;14.96;83.00
69060;BME280;56135;37.534;-122.308;2022-07-29T09:37:37;101180.28;;;14.97;83.16
69060;BME280;56135;37.534;-122.308;2022-07-29T09:40:10;101183.78;;;14.99;83.13
69060;BME280;56135;37.534;-122.308;2022-07-29T09:42:36;101175.78;;;14.99;82.79
69060;BME280;56135;37.534;-122.308;2022-07-29T09:45:02;101174.97;;;14.97;83.18
69060;BME280;56135;37.534;-122.308;2022-07-29T09:47:40;101171.38;;;14.98;83.15
69060;BME280;56135;37.534;-122.308;2022-07-29T09:50:06;101169.56;;;15.00;82.77
69060;BME280;56135;37.534;-122.308;2022-07-29T09:52:31;101172.22;;;15.00;83.07
69060;BME280;56135;37.534;-122.308;2022-07-29T09:55:09;101173.03;;;15.02;82.69
69060;BME280;56135;37.534;-122.308;2022-07-29T09:57:35;101162.44;;;15.01;83.01
69060;BME280;56135;37.534;-122.308;2022-07-29T10:00:03;101159.78;;;15.01;82.68
69060;BME280;56135;37.534;-122.308;2022-07-29T10:02:32;101160.72;;;15.00;82.77
69060;BME280;56135;37.534;-122.308;2022-07-29T10:04:59;101157.16;;;14.99;82.97
69060;BME280;56135;37.534;-122.308;2022-07-29T10:07:25;101158.06;;;14.98;82.97
69060;BME280;56135;37.534;-122.308;2022-07-29T10:09:54;101158.00;;;15.01;82.59
69060;BME280;56135;37.534;-122.308;2022-07-29T10:12:21;101158.00;;;15.01;82.66
69060;BME280;56135;37.534;-122.308;2022-07-29T10:14:47;101150.91;;;15.02;82.48
69060;BME280;56135;37.534;-122.308;2022-07-29T10:17:13;101157.16;;;14.99;82.98
69060;BME280;56135;37.534;-122.308;2022-07-29T10:19:40;101153.69;;;14.97;83.46
69060;BME280;56135;37.534;-122.308;2022-07-29T10:22:08;101150.19;;;14.95;83.41
69060;BME280;56135;37.534;-122.308;2022-07-29T10:24:34;101144.91;;;14.94;83.49
69060;BME280;56135;37.534;-122.308;2022-07-29T10:27:01;101148.38;;;14.96;82.94
69060;BME280;56135;37.534;-122.308;2022-07-29T10:29:27;101147.56;;;14.94;83.26
69060;BME280;56135;37.534;-122.308;2022-07-29T10:34:29;101153.69;;;14.97;83.13
69060;BME280;56135;37.534;-122.308;2022-07-29T10:37:14;101153.69;;;14.97;83.16
69060;BME280;56135;37.534;-122.308;2022-07-29T10:40:06;101148.38;;;14.97;82.92
69060;BME280;56135;37.534;-122.308;2022-07-29T10:42:54;101151.88;;;14.98;83.23
69060;BME280;56135;37.534;-122.308;2022-07-29T10:45:21;101147.44;;;14.98;83.52
69060;BME280;56135;37.534;-122.308;2022-07-29T10:47:47;101146.56;;;14.98;83.06
69060;BME280;56135;37.534;-122.308;2022-07-29T10:50:13;101143.91;;;14.98;83.26
69060;BME280;56135;37.534;-122.308;2022-07-29T10:52:55;101151.84;;;14.99;83.21
69060;BME280;56135;37.534;-122.308;2022-07-29T10:55:33;101152.75;;;15.00;82.79
69060;BME280;56135;37.534;-122.308;2022-07-29T10:58:20;101152.78;;;14.97;83.47
69060;BME280;56135;37.534;-122.308;2022-07-29T11:00:49;101156.34;;;14.97;82.91
69060;BME280;56135;37.534;-122.308;2022-07-29T11:06:21;101154.50;;;14.99;83.03
69060;BME280;56135;37.534;-122.308;2022-07-29T11:08:47;101148.31;;;14.99;82.89
69060;BME280;56135;37.534;-122.308;2022-07-29T11:11:33;101151.75;;;15.02;83.00
69060;BME280;56135;37.534;-122.308;2022-07-29T11:13:59;101145.63;;;15.00;82.81
69060;BME280;56135;37.534;-122.308;2022-07-29T11:16:25;101158.91;;;15.00;82.65
69060;BME280;56135;37.534;-122.308;2022-07-29T11:21:49;101150.94;;;15.00;82.87
69060;BME280;56135;37.534;-122.308;2022-07-29T11:24:24;101147.41;;;15.00;82.88
69060;BME280;56135;37.534;-122.308;2022-07-29T11:27:09;101145.63;;;15.00;83.02
69060;BME280;56135;37.534;-122.308;2022-07-29T11:29:38;101149.09;;;15.02;82.63
69060;BME280;56135;37.534;-122.308;2022-07-29T11:32:12;101148.25;;;15.02;82.96
69060;BME280;56135;37.534;-122.308;2022-07-29T11:34:39;101150.91;;;15.02;82.59
69060;BME280;56135;37.534;-122.308;2022-07-29T11:39:40;101149.13;;;15.01;82.32
69060;BME280;56135;37.534;-122.308;2022-07-29T11:47:24;101147.38;;;15.01;82.86
69060;BME280;56135;37.534;-122.308;2022-07-29T11:49:51;101150.84;;;15.04;82.83
69060;BME280;56135;37.534;-122.308;2022-07-29T11:52:20;101148.25;;;15.02;82.69
69060;BME280;56135;37.534;-122.308;2022-07-29T11:54:47;101147.38;;;15.01;82.47
69060;BME280;56135;37.534;-122.308;2022-07-29T11:57:14;101146.53;;;14.99;82.69
69060;BME280;56135;37.534;-122.308;2022-07-29T11:59:41;101151.03;;;14.96;82.60
69060;BME280;56135;37.534;-122.308;2022-07-29T12:02:08;101149.22;;;14.98;82.65
69060;BME280;56135;37.534;-122.308;2022-07-29T12:04:34;101159.00;;;14.97;82.63
69060;BME280;56135;37.534;-122.308;2022-07-29T12:07:13;101151.94;;;14.96;82.52
69060;BME280;56135;37.534;-122.308;2022-07-29T12:09:38;101151.03;;;14.96;82.42
69060;BME280;56135;37.534;-122.308;2022-07-29T12:12:04;101147.47;;;14.97;82.34
69060;BME280;56135;37.534;-122.308;2022-07-29T12:14:31;101151.03;;;14.96;82.78
69060;BME280;56135;37.534;-122.308;2022-07-29T12:16:58;101157.28;;;14.95;83.08
69060;BME280;56135;37.534;-122.308;2022-07-29T12:19:25;101151.06;;;14.94;83.24
69060;BME280;56135;37.534;-122.308;2022-07-29T12:21:52;101157.25;;;14.96;82.63
69060;BME280;56135;37.534;-122.308;2022-07-29T12:24:18;101156.34;;;14.97;82.68
69060;BME280;56135;37.534;-122.308;2022-07-29T12:26:50;101151.94;;;14.96;82.63
69060;BME280;56135;37.534;-122.308;2022-07-29T12:29:17;101158.91;;;15.00;82.71
69060;BME280;56135;37.534;-122.308;2022-07-29T12:31:43;101151.84;;;14.99;82.39
69060;BME280;56135;37.534;-122.308;2022-07-29T12:34:12;101158.06;;;14.98;82.44
69060;BME280;56135;37.534;-122.308;2022-07-29T12:36:40;101159.91;;;14.96;82.55
69060;BME280;56135;37.534;-122.308;2022-07-29T12:39:06;101157.28;;;14.95;82.68
69060;BME280;56135;37.534;-122.308;2022-07-29T12:41:32;101163.53;;;14.94;82.71
69060;BME280;56135;37.534;-122.308;2022-07-29T12:43:58;101165.28;;;14.93;82.81
69060;BME280;56135;37.534;-122.308;2022-07-29T12:46:23;101160.84;;;14.94;82.79
69060;BME280;56135;37.534;-122.308;2022-07-29T12:48:53;101157.25;;;14.96;82.35
69060;BME280;56135;37.534;-122.308;2022-07-29T12:51:32;101158.19;;;14.94;82.87
69060;BME280;56135;37.534;-122.308;2022-07-29T12:54:09;101157.28;;;14.95;82.56